BJV weather

Milas Bodrum International Airport
Bodrum, Mu─čla Province, Turkey

Public forecast

Using degrees Celsius for public forecast. Weather courtesy of forecast.io.

Current aviation weather report (METAR) for Milas Bodrum International Airport

Retrieved 2020/01/21 07:20 UTC (29 minutes ago):

LTFE 210720Z 06010KT CAVOK 08/M06 Q1032 NOSIG

Aviation forecast (TAF) for Milas Bodrum International Airport

Retrieved 2020/01/21 06:03 UTC (2 hours ago):

TAF LTFE 210440Z 2106/2206 02012KT CAVOK TEMPO 2110/2114 FEW035